Time;durP1;ratioP1;P1;durP2;ratioP2;P2;SDS_P1;SDS_P2;PMS_P1;PMS_P2;Temp;Humidity;BMP_temperature;BMP_pressure;BME280_temperature;BME280_humidity;BME280_pressure;Samples;Min_cycle;Max_cycle;Signal;HPM_P1;HPM_P2
2023/04/03 00:01:55;;;;;;;6.00;1.27;;;0.50;99.90;;;;;;5206122;28;20180;-50
2023/04/03 00:04:26;;;;;;;4.20;1.70;;;0.60;99.90;;;;;;5204720;28;20541;-52
2023/04/03 00:06:56;;;;;;;1.50;1.40;;;0.60;99.90;;;;;;5200484;28;20223;-51
2023/04/03 00:09:27;;;;;;;2.60;1.40;;;0.60;99.90;;;;;;5192926;28;20526;-50
2023/04/03 00:11:58;;;;;;;9.27;1.20;;;0.60;99.90;;;;;;5206178;28;20189;-49
2023/04/03 00:14:28;;;;;;;4.03;1.60;;;0.50;99.90;;;;;;5204447;28;20180;-48
2023/04/03 00:16:59;;;;;;;4.87;1.70;;;0.50;99.90;;;;;;5194813;28;20209;-49
2023/04/03 00:19:29;;;;;;;6.67;1.60;;;0.40;99.90;;;;;;5190234;28;20215;-48
2023/04/03 00:22:00;;;;;;;3.20;0.90;;;0.40;99.90;;;;;;5202701;28;20197;-49
2023/04/03 00:24:31;;;;;;;7.30;1.70;;;0.50;99.90;;;;;;5206443;28;20197;-50
2023/04/03 00:27:01;;;;;;;4.73;1.53;;;0.40;99.90;;;;;;5204788;28;20215;-49
2023/04/03 00:29:32;;;;;;;7.70;1.73;;;0.40;99.90;;;;;;5200869;28;20573;-48
2023/04/03 00:32:02;;;;;;;2.83;1.13;;;0.50;99.90;;;;;;5199894;28;20178;-50
2023/04/03 00:34:33;;;;;;;12.47;1.20;;;0.40;99.90;;;;;;5203128;28;20184;-48
2023/04/03 00:37:04;;;;;;;2.67;1.20;;;0.40;99.90;;;;;;5205469;28;20578;-48
2023/04/03 00:39:35;;;;;;;3.03;1.43;;;0.40;99.90;;;;;;5195953;28;20226;-49
2023/04/03 00:42:06;;;;;;;5.60;1.40;;;0.40;99.90;;;;;;5195864;28;20422;-49
2023/04/03 00:44:36;;;;;;;6.87;1.90;;;0.40;99.90;;;;;;5197988;28;20690;-49
2023/04/03 00:47:10;;;;;;;7.23;1.63;;;0.40;99.90;;;;;;5202236;28;20208;-49
2023/04/03 00:49:42;;;;;;;3.37;1.50;;;0.30;99.90;;;;;;5202950;28;20807;-50
2023/04/03 00:52:17;;;;;;;8.80;2.03;;;0.30;99.90;;;;;;5192210;28;20800;-48
2023/04/03 00:54:50;;;;;;;3.80;1.23;;;0.30;99.90;;;;;;5196265;28;20501;-50
2023/04/03 00:57:22;;;;;;;3.43;1.00;;;0.20;99.90;;;;;;5208084;28;20496;-48
2023/04/03 00:59:59;;;;;;;6.17;1.40;;;0.20;99.90;;;;;;5199394;28;20878;-48
2023/04/03 01:02:30;;;;;;;8.10;1.47;;;0.20;99.90;;;;;;5208546;28;20429;-48
2023/04/03 01:05:00;;;;;;;1.30;1.13;;;0.20;99.90;;;;;;5208557;28;20432;-49
2023/04/03 01:07:33;;;;;;;4.80;1.80;;;0.20;99.90;;;;;;5206052;28;20751;-47
2023/04/03 01:10:10;;;;;;;9.73;1.87;;;0.20;99.90;;;;;;5205989;28;20291;-50
2023/04/03 01:12:44;;;;;;;7.70;2.27;;;0.10;99.90;;;;;;5204325;28;20490;-49
2023/04/03 01:15:27;;;;;;;5.70;2.07;;;0.10;99.90;;;;;;5201817;28;20433;-49
2023/04/03 01:17:59;;;;;;;6.13;1.30;;;0.10;99.90;;;;;;5193166;28;20451;-48
2023/04/03 01:20:36;;;;;;;8.73;1.50;;;0.10;99.90;;;;;;5207826;28;20843;-48
2023/04/03 01:23:09;;;;;;;4.13;1.13;;;0.00;99.90;;;;;;5203879;28;20477;-49
2023/04/03 01:25:43;;;;;;;6.03;1.77;;;0.10;99.90;;;;;;5210651;28;20566;-50
2023/04/03 01:28:21;;;;;;;3.40;1.43;;;0.00;99.90;;;;;;5208339;28;20473;-50
2023/04/03 01:31:03;;;;;;;5.87;1.40;;;0.00;99.90;;;;;;5204443;28;20442;-49
2023/04/03 01:33:35;;;;;;;3.47;1.43;;;0.00;99.90;;;;;;5196753;28;20429;-50
2023/04/03 01:36:07;;;;;;;2.80;1.23;;;-0.10;99.90;;;;;;5205902;28;20973;-49
2023/04/03 01:38:37;;;;;;;4.60;1.80;;;-0.10;99.90;;;;;;5197610;28;20887;-47
2023/04/03 01:41:08;;;;;;;4.33;1.60;;;-0.10;99.90;;;;;;5203717;28;20442;-48
2023/04/03 01:43:39;;;;;;;3.67;1.60;;;-0.20;99.90;;;;;;5206646;28;20195;-48
2023/04/03 01:46:10;;;;;;;5.07;1.67;;;-0.30;99.90;;;;;;5207181;28;20196;-49
2023/04/03 01:48:40;;;;;;;4.07;1.77;;;-0.20;99.90;;;;;;5203252;28;20454;-48
2023/04/03 01:51:11;;;;;;;2.50;1.60;;;-0.30;99.90;;;;;;5208600;28;20180;-48
2023/04/03 01:53:42;;;;;;;2.93;1.20;;;-0.30;99.90;;;;;;5198095;28;20184;-49
2023/04/03 01:56:13;;;;;;;4.87;1.00;;;-0.40;99.90;;;;;;5205891;28;20436;-48
2023/04/03 01:58:43;;;;;;;5.30;1.90;;;-0.40;99.90;;;;;;5203281;28;20590;-47
2023/04/03 02:01:14;;;;;;;7.27;1.70;;;-0.30;99.90;;;;;;5205926;28;20522;-48
2023/04/03 02:03:45;;;;;;;6.00;1.13;;;-0.50;99.90;;;;;;5210927;28;20185;-48
2023/04/03 02:06:16;;;;;;;1.53;1.33;;;-0.50;99.90;;;;;;5210556;28;20496;-48
2023/04/03 02:08:46;;;;;;;2.50;1.33;;;-0.60;99.90;;;;;;5209203;28;20207;-49
2023/04/03 02:11:17;;;;;;;1.67;1.30;;;-0.40;99.90;;;;;;5209188;28;20215;-48
2023/04/03 02:13:48;;;;;;;8.27;1.73;;;-0.40;99.90;;;;;;5205008;28;20657;-48
2023/04/03 02:16:18;;;;;;;1.70;1.07;;;-0.60;99.90;;;;;;5211247;28;20272;-49
2023/04/03 02:18:49;;;;;;;4.23;1.33;;;-0.60;99.90;;;;;;5201324;28;20617;-48
2023/04/03 02:21:20;;;;;;;5.93;1.40;;;-0.60;99.90;;;;;;5193793;28;20187;-48
2023/04/03 02:23:51;;;;;;;15.33;1.87;;;-0.70;99.90;;;;;;5207434;28;20504;-47
2023/04/03 02:26:22;;;;;;;2.50;1.30;;;-0.70;99.90;;;;;;5196920;28;20959;-48
2023/04/03 02:28:52;;;;;;;2.77;2.00;;;-0.70;99.90;;;;;;5205521;28;20200;-48
2023/04/03 02:31:23;;;;;;;2.20;1.30;;;-0.60;99.90;;;;;;5206239;28;20637;-49
2023/04/03 02:33:54;;;;;;;2.00;1.00;;;-0.60;99.90;;;;;;5199558;28;20184;-49
2023/04/03 02:36:25;;;;;;;4.37;1.80;;;-0.60;99.90;;;;;;5208298;28;20449;-48
2023/04/03 02:38:55;;;;;;;2.83;1.00;;;-0.60;99.90;;;;;;5208018;28;20233;-49
2023/04/03 02:41:33;;;;;;;10.97;1.60;;;-0.60;99.90;;;;;;5205449;28;20580;-48
2023/04/03 02:44:05;;;;;;;5.60;1.40;;;-0.70;99.90;;;;;;5205739;28;20172;-47
2023/04/03 02:46:36;;;;;;;2.00;1.00;;;-0.70;99.90;;;;;;5206037;28;20509;-47
2023/04/03 02:49:06;;;;;;;2.07;1.40;;;-0.70;99.90;;;;;;5207605;28;20567;-47
2023/04/03 02:51:37;;;;;;;4.17;1.90;;;-0.70;99.90;;;;;;5202083;28;20298;-47
2023/04/03 02:54:08;;;;;;;4.80;1.23;;;-0.70;99.90;;;;;;5204205;28;20187;-48
2023/04/03 02:56:39;;;;;;;2.63;1.07;;;-0.70;99.90;;;;;;5209835;28;20179;-47
2023/04/03 02:59:09;;;;;;;1.77;1.60;;;-0.70;99.90;;;;;;5207211;28;20494;-48
2023/04/03 03:01:41;;;;;;;1.63;1.20;;;-0.70;99.90;;;;;;5205211;28;20199;-48
2023/04/03 03:04:12;;;;;;;8.27;1.53;;;-0.70;99.90;;;;;;5201925;28;20199;-49
2023/04/03 03:06:43;;;;;;;3.27;1.43;;;-0.70;99.90;;;;;;5196262;28;20474;-48
2023/04/03 03:09:13;;;;;;;5.47;1.93;;;-0.80;99.90;;;;;;5206005;28;20227;-48
2023/04/03 03:11:44;;;;;;;2.00;1.47;;;-0.80;99.90;;;;;;5202854;28;20268;-48
2023/04/03 03:14:15;;;;;;;3.57;1.80;;;-0.80;99.90;;;;;;5197036;28;20267;-48
2023/04/03 03:16:45;;;;;;;10.80;1.77;;;-0.80;99.90;;;;;;5202262;28;20442;-48
2023/04/03 03:19:16;;;;;;;2.80;1.63;;;-0.90;99.90;;;;;;5195745;28;20221;-48
2023/04/03 03:21:47;;;;;;;3.27;1.17;;;-0.80;99.90;;;;;;5200449;28;20665;-48
2023/04/03 03:24:17;;;;;;;2.50;1.30;;;-0.90;99.90;;;;;;5200772;28;20187;-49
2023/04/03 03:26:48;;;;;;;5.97;1.40;;;-0.90;99.90;;;;;;5201792;28;20235;-49
2023/04/03 03:29:19;;;;;;;1.50;1.40;;;-0.90;99.90;;;;;;5202382;28;20278;-50
2023/04/03 03:31:49;;;;;;;1.90;1.57;;;-0.90;99.90;;;;;;5205541;28;20180;-49
2023/04/03 03:34:20;;;;;;;1.93;1.20;;;-1.00;99.90;;;;;;5205784;28;20179;-50
2023/04/03 03:36:51;;;;;;;4.57;1.20;;;-1.00;99.90;;;;;;5199944;28;20187;-49
2023/04/03 03:39:21;;;;;;;2.93;1.10;;;-1.10;99.90;;;;;;5199456;28;20626;-51
2023/04/03 03:41:53;;;;;;;1.57;1.47;;;-1.00;99.90;;;;;;5200914;28;20196;-48
2023/04/03 03:44:23;;;;;;;12.67;2.07;;;-1.10;99.90;;;;;;5201505;28;20591;-49
2023/04/03 03:46:55;;;;;;;4.63;2.03;;;-1.10;99.90;;;;;;5202062;28;20601;-49
2023/04/03 03:49:26;;;;;;;4.10;1.50;;;-1.10;99.90;;;;;;5204936;28;20206;-50
2023/04/03 03:51:56;;;;;;;3.60;1.93;;;-1.00;99.90;;;;;;5194055;28;20787;-48
2023/04/03 03:54:27;;;;;;;3.70;1.57;;;-1.10;99.90;;;;;;5205604;28;20175;-49
2023/04/03 03:56:57;;;;;;;5.63;1.60;;;-1.10;99.90;;;;;;5201131;28;20207;-48
2023/04/03 03:59:28;;;;;;;5.90;1.63;;;-1.10;99.90;;;;;;5203726;28;20211;-49
2023/04/03 04:01:59;;;;;;;2.80;2.10;;;-1.20;99.90;;;;;;5203461;28;20254;-48
2023/04/03 04:04:30;;;;;;;4.20;1.33;;;-1.20;99.90;;;;;;5207922;28;20195;-50
2023/04/03 04:07:00;;;;;;;3.40;2.10;;;-1.20;99.90;;;;;;5205589;28;20472;-48
2023/04/03 04:09:31;;;;;;;3.73;1.63;;;-1.30;99.90;;;;;;5203888;28;20500;-49
2023/04/03 04:12:01;;;;;;;9.70;1.77;;;-1.30;99.90;;;;;;5200146;28;20189;-49
2023/04/03 04:14:33;;;;;;;2.63;1.40;;;-1.30;99.90;;;;;;5194039;28;20177;-48
2023/04/03 04:17:04;;;;;;;3.53;1.37;;;-1.20;99.90;;;;;;5200133;28;20176;-51
2023/04/03 04:19:34;;;;;;;4.93;1.47;;;-1.20;99.90;;;;;;5193038;28;20994;-49
2023/04/03 04:22:05;;;;;;;6.10;1.67;;;-1.20;99.90;;;;;;5200783;28;20198;-49
2023/04/03 04:24:36;;;;;;;10.90;2.30;;;-1.20;99.90;;;;;;5194566;28;20727;-49
2023/04/03 04:27:06;;;;;;;1.80;1.30;;;-1.20;99.90;;;;;;5210208;28;20196;-47
2023/04/03 04:29:37;;;;;;;5.13;1.50;;;-1.20;99.90;;;;;;5200995;28;20199;-49
2023/04/03 04:32:08;;;;;;;4.50;2.17;;;-1.20;99.90;;;;;;5206204;28;20234;-49
2023/04/03 04:34:39;;;;;;;7.00;1.60;;;-1.20;99.90;;;;;;5208635;28;20202;-49
2023/04/03 04:37:10;;;;;;;7.03;2.30;;;-1.20;99.90;;;;;;5201757;28;20407;-49
2023/04/03 04:39:40;;;;;;;2.27;1.43;;;-1.10;99.90;;;;;;5201121;28;20793;-48
2023/04/03 04:42:12;;;;;;;6.73;2.07;;;-1.00;99.90;;;;;;5197982;28;20188;-50
2023/04/03 04:44:43;;;;;;;4.73;1.50;;;-1.20;99.90;;;;;;5197240;28;20219;-49
2023/04/03 04:47:13;;;;;;;13.00;2.33;;;-1.20;99.90;;;;;;5199464;28;21018;-51
2023/04/03 04:49:45;;;;;;;2.07;1.00;;;-1.20;99.90;;;;;;5201843;28;20241;-50
2023/04/03 04:52:15;;;;;;;3.23;1.73;;;-1.10;99.90;;;;;;5188179;28;20180;-49
2023/04/03 04:54:46;;;;;;;5.93;1.40;;;-1.10;99.90;;;;;;5203453;28;20462;-51
2023/04/03 04:57:17;;;;;;;3.70;1.67;;;-1.10;99.90;;;;;;5204582;28;20233;-50
2023/04/03 04:59:47;;;;;;;5.20;1.40;;;-1.00;99.90;;;;;;5202585;28;20227;-50
2023/04/03 05:02:18;;;;;;;3.03;1.87;;;-0.90;99.90;;;;;;5206955;28;20227;-50
2023/04/03 05:04:50;;;;;;;4.57;1.60;;;-0.90;99.90;;;;;;5200827;28;20199;-49
2023/04/03 05:07:20;;;;;;;6.27;1.80;;;-0.90;99.90;;;;;;5196794;28;20555;-50
2023/04/03 05:09:51;;;;;;;3.03;2.00;;;-0.80;99.90;;;;;;5197859;28;20454;-49
2023/04/03 05:12:21;;;;;;;4.83;1.77;;;-0.80;99.90;;;;;;5204923;28;20275;-50
2023/04/03 05:14:52;;;;;;;1.30;1.30;;;-0.70;99.90;;;;;;5206879;28;20308;-48
2023/04/03 05:17:23;;;;;;;8.87;1.47;;;-0.60;99.90;;;;;;5207381;28;20716;-50
2023/04/03 05:19:53;;;;;;;3.63;1.63;;;-0.30;99.90;;;;;;5206050;28;20291;-48
2023/04/03 05:22:24;;;;;;;5.20;1.70;;;0.90;99.90;;;;;;5208214;28;20652;-48
2023/04/03 05:24:54;;;;;;;3.43;1.60;;;2.50;99.90;;;;;;5207312;28;20191;-48
2023/04/03 05:27:27;;;;;;;5.57;1.50;;;3.80;99.90;;;;;;5206026;28;20265;-48
2023/04/03 05:29:59;;;;;;;1.63;0.93;;;4.00;99.90;;;;;;5222094;28;20207;-49
2023/04/03 05:32:30;;;;;;;11.30;1.20;;;3.70;99.90;;;;;;5207768;28;20427;-47
2023/04/03 05:35:00;;;;;;;3.90;1.20;;;3.60;99.90;;;;;;5202576;28;20474;-52
2023/04/03 05:37:31;;;;;;;3.50;1.57;;;4.10;99.90;;;;;;5205722;28;20678;-48
2023/04/03 05:40:03;;;;;;;3.70;1.27;;;4.50;99.90;;;;;;5204631;28;20227;-49
2023/04/03 05:42:34;;;;;;;5.93;1.60;;;4.60;99.90;;;;;;5205914;28;20595;-51
2023/04/03 05:45:06;;;;;;;2.73;1.43;;;4.20;99.90;;;;;;5204619;28;20441;-49
2023/04/03 05:47:36;;;;;;;8.57;2.47;;;3.80;99.90;;;;;;5198707;28;20466;-52
2023/04/03 05:50:07;;;;;;;1.77;1.07;;;3.50;99.90;;;;;;5205766;28;20442;-50
2023/04/03 05:52:42;;;;;;;2.73;1.47;;;3.00;99.90;;;;;;5207118;28;20187;-48
2023/04/03 05:55:13;;;;;;;1.23;1.20;;;3.20;99.90;;;;;;5189770;28;20422;-49
2023/04/03 05:57:44;;;;;;;5.40;1.87;;;4.40;99.90;;;;;;5204071;28;20793;-49
2023/04/03 06:00:15;;;;;;;2.07;1.50;;;5.40;99.90;;;;;;5206299;28;20195;-50
2023/04/03 06:02:46;;;;;;;8.03;2.17;;;6.50;94.60;;;;;;5206926;28;20188;-49
2023/04/03 06:05:17;;;;;;;3.13;2.30;;;8.10;78.70;;;;;;5208374;28;20509;-49
2023/04/03 06:07:49;;;;;;;6.47;2.00;;;9.60;64.50;;;;;;5209209;28;20210;-49
2023/04/03 06:10:20;;;;;;;18.70;1.60;;;11.10;55.10;;;;;;5207205;28;20180;-50
2023/04/03 06:12:51;;;;;;;2.30;1.30;;;12.50;48.50;;;;;;5206232;28;20545;-49
2023/04/03 06:15:21;;;;;;;8.33;2.57;;;12.90;45.60;;;;;;5204665;28;20187;-49
2023/04/03 06:17:52;;;;;;;2.10;1.87;;;13.70;43.70;;;;;;5203340;28;20465;-52
2023/04/03 06:20:23;;;;;;;3.03;1.77;;;14.60;41.20;;;;;;5201828;28;20510;-49
2023/04/03 06:22:53;;;;;;;7.43;1.83;;;14.30;39.70;;;;;;5195669;28;20195;-50
2023/04/03 06:25:25;;;;;;;2.17;1.60;;;13.90;39.30;;;;;;5196899;28;20199;-50
2023/04/03 06:27:55;;;;;;;4.40;1.80;;;13.60;39.40;;;;;;5192883;28;20212;-51
2023/04/03 06:30:26;;;;;;;4.73;1.00;;;13.20;40.70;;;;;;5193383;28;20445;-50
2023/04/03 06:32:57;;;;;;;5.40;1.30;;;13.20;40.00;;;;;;5197752;28;20207;-50
2023/04/03 06:35:28;;;;;;;2.53;1.30;;;13.10;41.40;;;;;;5200562;28;20176;-50
2023/04/03 06:37:59;;;;;;;3.40;1.20;;;14.20;39.50;;;;;;5202207;28;20206;-51
2023/04/03 06:40:30;;;;;;;3.27;1.37;;;15.00;37.10;;;;;;5188778;28;21234;-49
2023/04/03 06:43:00;;;;;;;2.23;1.30;;;15.40;35.90;;;;;;5193922;28;20175;-51
2023/04/03 06:45:31;;;;;;;5.53;1.50;;;15.60;36.80;;;;;;5201643;28;20814;-49
2023/04/03 06:48:02;;;;;;;2.10;1.23;;;15.50;35.90;;;;;;5193189;28;20543;-51
2023/04/03 06:50:32;;;;;;;3.83;1.40;;;14.50;35.80;;;;;;5192461;28;20191;-49
2023/04/03 06:53:03;;;;;;;9.60;2.03;;;14.30;36.70;;;;;;5195828;28;20184;-51
2023/04/03 06:55:34;;;;;;;3.50;1.30;;;14.00;36.90;;;;;;5196560;28;20862;-50
2023/04/03 06:58:05;;;;;;;4.13;1.80;;;14.10;36.20;;;;;;5196864;28;20254;-52
2023/04/03 07:00:36;;;;;;;1.10;0.97;;;13.30;36.70;;;;;;5184505;28;21248;-50
2023/04/03 07:03:06;;;;;;;2.43;1.27;;;12.60;37.20;;;;;;5197506;28;20188;-49
2023/04/03 07:05:37;;;;;;;3.43;1.20;;;11.80;38.60;;;;;;5195537;28;20196;-48
2023/04/03 07:08:08;;;;;;;4.30;1.43;;;11.60;38.00;;;;;;5200712;28;20254;-48
2023/04/03 07:10:38;;;;;;;1.40;1.00;;;11.90;38.00;;;;;;5198357;28;20302;-51
2023/04/03 07:13:09;;;;;;;0.80;0.70;;;12.40;37.20;;;;;;5202339;28;20202;-50
2023/04/03 07:15:40;;;;;;;4.23;1.10;;;13.10;36.00;;;;;;5200143;28;20214;-50
2023/04/03 07:18:10;;;;;;;3.20;0.90;;;12.80;35.90;;;;;;5198108;28;20203;-51
2023/04/03 07:20:41;;;;;;;6.87;1.30;;;12.00;36.40;;;;;;5190821;28;21775;-49
2023/04/03 07:23:12;;;;;;;2.70;1.00;;;10.20;37.50;;;;;;5200749;28;20179;-51
2023/04/03 07:25:44;;;;;;;3.83;1.23;;;8.40;42.30;;;;;;5193856;28;20181;-52
2023/04/03 07:28:16;;;;;;;7.80;1.40;;;7.00;45.30;;;;;;5203963;28;20928;-51
2023/04/03 07:30:49;;;;;;;1.47;1.37;;;6.30;47.30;;;;;;5209262;28;21022;-52
2023/04/03 07:33:23;;;;;;;2.07;1.10;;;7.00;47.70;;;;;;5205937;28;20505;-51
2023/04/03 07:35:54;;;;;;;3.30;1.03;;;8.20;44.40;;;;;;5201822;28;20437;-51
2023/04/03 07:38:25;;;;;;;6.43;0.90;;;10.00;41.20;;;;;;5199642;28;21461;-50
2023/04/03 07:40:56;;;;;;;1.63;0.70;;;10.40;39.10;;;;;;5195908;28;20619;-48
2023/04/03 07:43:27;;;;;;;1.00;0.90;;;11.10;38.40;;;;;;5195207;28;20539;-50
2023/04/03 07:45:58;;;;;;;3.30;1.10;;;11.00;38.40;;;;;;5199443;28;20205;-50
2023/04/03 07:48:29;;;;;;;0.67;0.67;;;9.70;39.90;;;;;;5196646;28;20459;-52
2023/04/03 07:51:01;;;;;;;2.10;0.80;;;9.50;41.60;;;;;;5210451;28;20444;-52
2023/04/03 07:53:32;;;;;;;5.70;1.10;;;10.30;39.20;;;;;;5202377;28;20411;-51
2023/04/03 07:56:03;;;;;;;1.23;0.80;;;10.70;38.50;;;;;;5202416;28;20468;-52
2023/04/03 07:58:33;;;;;;;2.37;1.03;;;10.10;38.50;;;;;;5206010;28;20464;-49
2023/04/03 08:01:04;;;;;;;0.80;0.80;;;9.30;39.20;;;;;;5209613;28;20184;-49
2023/04/03 08:03:36;;;;;;;1.27;0.90;;;7.20;41.60;;;;;;5203366;28;20208;-50
2023/04/03 08:06:08;;;;;;;1.53;0.77;;;5.60;45.90;;;;;;5200039;28;20208;-52
2023/04/03 08:08:38;;;;;;;3.63;1.37;;;4.70;48.90;;;;;;5197611;28;20474;-50
2023/04/03 08:11:10;;;;;;;4.90;1.20;;;4.10;51.20;;;;;;5202121;28;20433;-51
2023/04/03 08:13:42;;;;;;;2.60;0.97;;;3.70;53.10;;;;;;5198539;28;20176;-49
2023/04/03 08:16:18;;;;;;;1.60;1.20;;;3.60;54.10;;;;;;5204578;28;20428;-52
2023/04/03 08:18:49;;;;;;;4.90;1.30;;;3.50;55.60;;;;;;5215789;28;20466;-51
2023/04/03 08:21:20;;;;;;;8.60;0.83;;;3.60;56.70;;;;;;5203059;28;20505;-50
2023/04/03 08:23:51;;;;;;;1.67;0.70;;;3.50;57.10;;;;;;5202816;28;20188;-50
2023/04/03 08:26:21;;;;;;;2.93;1.20;;;3.50;57.40;;;;;;5202253;28;20454;-49
2023/04/03 08:28:52;;;;;;;3.53;0.80;;;3.60;58.90;;;;;;5188229;28;20218;-49
2023/04/03 08:31:23;;;;;;;4.57;0.87;;;3.80;57.40;;;;;;5204296;28;20186;-50
2023/04/03 08:33:53;;;;;;;5.47;0.90;;;3.90;56.60;;;;;;5202227;28;20183;-50
2023/04/03 08:36:26;;;;;;;3.80;0.90;;;3.80;56.30;;;;;;5206372;28;20180;-49
2023/04/03 08:38:57;;;;;;;6.63;1.03;;;3.80;56.70;;;;;;5202344;28;20217;-52
2023/04/03 08:41:40;;;;;;;6.67;1.20;;;3.90;56.50;;;;;;5199091;28;20488;-52
2023/04/03 08:44:35;;;;;;;15.27;0.93;;;3.90;56.10;;;;;;5199361;28;20647;-50
2023/04/03 08:47:09;;;;;;;7.30;0.93;;;3.80;56.40;;;;;;5203445;28;20468;-51
2023/04/03 08:49:46;;;;;;;3.13;0.93;;;3.80;56.60;;;;;;5201136;28;20479;-52
2023/04/03 08:52:23;;;;;;;2.77;0.70;;;3.70;56.00;;;;;;5196422;28;20442;-49
2023/04/03 08:54:57;;;;;;;2.50;1.10;;;3.70;55.90;;;;;;5196535;28;20810;-49
2023/04/03 08:57:32;;;;;;;2.33;1.20;;;3.60;55.60;;;;;;5202324;28;20473;-50
2023/04/03 09:00:15;;;;;;;1.10;1.00;;;3.90;56.00;;;;;;5200703;28;20465;-49
2023/04/03 09:02:49;;;;;;;1.20;1.07;;;4.20;55.70;;;;;;5199277;28;20434;-52
2023/04/03 09:05:31;;;;;;;0.73;0.73;;;4.20;54.70;;;;;;5201517;28;21330;-52
2023/04/03 09:08:32;;;;;;;6.47;1.33;;;4.30;54.10;;;;;;5203370;28;20514;-50
2023/04/03 09:11:46;;;;;;;2.17;0.80;;;4.10;53.40;;;;;;5203538;28;20438;-49
2023/04/03 09:14:42;;;;;;;0.87;0.70;;;4.10;53.50;;;;;;5194384;28;20446;-50
2023/04/03 09:17:32;;;;;;;1.70;0.90;;;4.20;51.70;;;;;;5207575;28;20438;-50
2023/04/03 09:20:32;;;;;;;3.17;1.00;;;4.50;51.60;;;;;;5204813;28;21004;-49
2023/04/03 09:23:24;;;;;;;1.50;0.90;;;4.70;51.20;;;;;;5199500;28;20589;-49
2023/04/03 09:26:40;;;;;;;1.60;1.13;;;4.80;51.20;;;;;;5197600;28;20445;-49
2023/04/03 09:29:20;;;;;;;2.40;1.00;;;5.20;48.90;;;;;;5202508;28;20461;-49
2023/04/03 09:31:57;;;;;;;1.30;0.80;;;5.40;48.30;;;;;;5199535;28;20957;-51
2023/04/03 09:34:32;;;;;;;3.50;1.27;;;5.50;48.00;;;;;;5206140;28;20440;-49
2023/04/03 09:37:08;;;;;;;2.23;0.80;;;5.30;47.80;;;;;;5204938;28;20472;-49
2023/04/03 09:40:06;;;;;;;4.43;0.93;;;5.30;48.20;;;;;;5198923;28;20999;-50
2023/04/03 09:42:41;;;;;;;2.73;1.00;;;5.20;48.40;;;;;;5197959;28;20512;-50
2023/04/03 09:45:27;;;;;;;3.00;1.50;;;5.00;49.60;;;;;;5199253;28;20511;-51
2023/04/03 09:48:13;;;;;;;1.10;1.10;;;4.90;50.10;;;;;;5206044;28;20504;-50
2023/04/03 09:50:59;;;;;;;0.83;0.57;;;4.90;50.60;;;;;;5205085;28;20437;-49
2023/04/03 09:53:42;;;;;;;1.90;1.10;;;4.80;50.10;;;;;;5196810;28;20439;-50
2023/04/03 09:56:16;;;;;;;0.70;0.70;;;4.60;50.90;;;;;;5198849;28;20969;-50
2023/04/03 09:59:03;;;;;;;1.53;1.10;;;4.40;51.80;;;;;;5205801;28;20466;-49
2023/04/03 10:01:41;;;;;;;1.47;0.80;;;4.50;51.40;;;;;;5193620;28;20492;-51
2023/04/03 10:04:18;;;;;;;3.17;0.60;;;4.50;51.10;;;;;;5197202;28;20449;-49
2023/04/03 10:06:51;;;;;;;2.30;0.90;;;4.70;51.30;;;;;;5199921;28;20568;-49
2023/04/03 10:09:29;;;;;;;2.20;1.00;;;4.80;50.70;;;;;;5208883;28;20468;-51
2023/04/03 10:12:10;;;;;;;8.07;0.90;;;4.90;50.40;;;;;;5200221;28;20435;-49
2023/04/03 10:14:58;;;;;;;0.60;0.60;;;5.00;50.60;;;;;;5204200;28;20464;-52
2023/04/03 10:17:45;;;;;;;4.33;0.73;;;4.90;50.10;;;;;;5196479;28;20442;-51
2023/04/03 10:20:42;;;;;;;1.80;0.77;;;5.00;50.60;;;;;;5196451;28;20492;-49
2023/04/03 10:23:38;;;;;;;0.60;0.60;;;5.10;49.90;;;;;;5199997;28;20818;-49
2023/04/03 10:26:25;;;;;;;2.60;1.30;;;5.30;49.00;;;;;;5203245;28;20494;-49
2023/04/03 10:29:22;;;;;;;0.50;0.50;;;5.60;48.40;;;;;;5200605;28;20542;-50
2023/04/03 10:31:59;;;;;;;5.77;0.77;;;6.10;46.60;;;;;;5201947;28;20431;-49
2023/04/03 10:34:44;;;;;;;0.73;0.43;;;5.90;46.20;;;;;;5199389;28;20961;-50
2023/04/03 10:37:25;;;;;;;4.00;0.87;;;6.00;46.80;;;;;;5204441;28;20529;-51
2023/04/03 10:40:02;;;;;;;1.10;0.80;;;6.10;46.80;;;;;;5226659;22;20507;-48
2023/04/03 10:42:49;;;;;;;2.30;0.87;;;5.80;46.00;;;;;;5200956;28;20446;-45
2023/04/03 10:45:20;;;;;;;2.77;0.80;;;5.60;46.10;;;;;;5199033;28;20458;-46
2023/04/03 10:48:02;;;;;;;2.40;1.20;;;5.60;46.70;;;;;;5200077;28;20462;-46
2023/04/03 10:50:58;;;;;;;0.50;0.50;;;5.50;47.00;;;;;;5184669;28;20237;-46
2023/04/03 10:53:50;;;;;;;6.97;0.67;;;5.60;46.00;;;;;;5182591;28;20433;-49
2023/04/03 10:56:36;;;;;;;1.10;0.90;;;5.60;46.10;;;;;;5174908;28;20443;-46
2023/04/03 10:59:28;;;;;;;0.80;0.80;;;5.50;46.70;;;;;;5183509;28;20451;-48
2023/04/03 11:02:24;;;;;;;4.40;0.70;;;5.40;47.40;;;;;;5185480;28;20427;-47
2023/04/03 11:05:03;;;;;;;0.70;0.70;;;5.40;47.20;;;;;;5140417;28;20446;-46
2023/04/03 11:07:39;;;;;;;0.73;0.70;;;5.30;47.50;;;;;;5169320;28;20486;-45
2023/04/03 11:10:17;;;;;;;1.63;0.77;;;5.30;47.90;;;;;;5168826;28;20578;-50
2023/04/03 11:13:08;;;;;;;2.30;0.70;;;5.30;48.30;;;;;;5161165;28;20431;-51
2023/04/03 11:15:39;;;;;;;2.13;0.67;;;5.40;48.70;;;;;;5166447;28;20500;-49
2023/04/03 11:18:18;;;;;;;1.50;0.60;;;5.30;48.90;;;;;;5165603;28;20439;-48
2023/04/03 11:21:17;;;;;;;3.30;0.63;;;5.30;49.20;;;;;;5166908;28;20467;-48
2023/04/03 11:23:49;;;;;;;0.83;0.67;;;5.20;48.60;;;;;;5158013;28;20449;-46
2023/04/03 11:26:25;;;;;;;9.53;1.10;;;5.40;49.40;;;;;;5184823;28;20478;-48
2023/04/03 11:29:06;;;;;;;2.80;0.90;;;5.30;49.00;;;;;;5193027;28;20455;-47
2023/04/03 11:31:52;;;;;;;2.20;0.90;;;5.20;49.50;;;;;;5157242;28;20434;-45
2023/04/03 11:34:44;;;;;;;3.60;0.73;;;5.20;49.70;;;;;;5188585;28;20455;-46
2023/04/03 11:37:33;;;;;;;1.63;0.93;;;5.20;50.50;;;;;;5193684;28;20844;-48
2023/04/03 11:40:27;;;;;;;0.93;0.67;;;5.40;51.00;;;;;;5173050;28;20540;-47
2023/04/03 11:43:07;;;;;;;1.43;0.70;;;5.50;49.60;;;;;;5158825;28;20457;-46
2023/04/03 11:45:52;;;;;;;1.97;0.90;;;5.40;49.90;;;;;;5177566;28;20446;-47
2023/04/03 11:48:31;;;;;;;2.33;1.03;;;5.60;50.20;;;;;;5181677;28;20449;-45
2023/04/03 11:51:28;;;;;;;6.60;1.27;;;5.80;49.70;;;;;;5168392;28;20453;-47
2023/04/03 11:54:36;;;;;;;1.43;0.70;;;5.70;49.60;;;;;;5167031;28;20433;-47
2023/04/03 11:57:43;;;;;;;2.97;1.00;;;5.60;50.00;;;;;;5172994;28;20452;-48
2023/04/03 12:00:48;;;;;;;2.63;1.20;;;5.50;50.40;;;;;;5164468;28;20479;-46
2023/04/03 12:06:05;;;;;;;1.43;1.03;;;5.40;50.80;;;;;;5178973;28;20989;-44
2023/04/03 12:08:39;;;;;;;0.63;0.63;;;5.40;50.80;;;;;;5173614;28;20440;-47
2023/04/03 12:11:13;;;;;;;0.93;0.93;;;5.40;50.70;;;;;;5189894;28;20539;-46
2023/04/03 12:13:50;;;;;;;0.80;0.80;;;5.40;50.90;;;;;;5173341;28;20423;-47
2023/04/03 12:16:31;;;;;;;0.90;0.90;;;5.60;50.20;;;;;;5188534;28;20448;-47
2023/04/03 12:19:23;;;;;;;0.73;0.73;;;5.50;50.50;;;;;;5182368;28;20562;-46
2023/04/03 12:21:58;;;;;;;0.93;0.60;;;5.30;50.60;;;;;;5169076;28;20810;-46
2023/04/03 12:24:34;;;;;;;1.60;1.10;;;5.30;51.60;;;;;;5185866;28;20443;-45
2023/04/03 12:27:28;;;;;;;3.70;1.60;;;5.20;52.10;;;;;;5155591;28;20459;-47
2023/04/03 12:30:18;;;;;;;2.70;0.63;;;5.30;52.40;;;;;;5163813;28;20466;-47
2023/04/03 12:33:06;;;;;;;4.50;1.07;;;5.50;52.10;;;;;;5164049;28;20430;-49
2023/04/03 12:35:42;;;;;;;7.93;1.17;;;5.80;50.60;;;;;;5183875;28;20521;-46
2023/04/03 12:38:34;;;;;;;4.40;1.57;;;6.20;50.50;;;;;;5175592;28;20541;-47
2023/04/03 12:41:55;;;;;;;1.43;1.33;;;6.60;49.10;;;;;;5176251;28;20443;-47
2023/04/03 12:44:40;;;;;;;1.43;1.10;;;7.10;48.70;;;;;;5155068;28;20441;-49
2023/04/03 12:47:28;;;;;;;2.97;0.70;;;6.90;46.30;;;;;;5166898;28;20465;-46
2023/04/03 12:50:01;;;;;;;0.83;0.83;;;6.40;46.50;;;;;;5188877;28;20505;-47
2023/04/03 12:52:44;;;;;;;0.77;0.77;;;6.20;47.50;;;;;;5180343;28;20431;-46
2023/04/03 12:55:17;;;;;;;2.07;1.27;;;6.40;47.80;;;;;;5186797;28;20441;-46
2023/04/03 12:57:48;;;;;;;6.00;0.63;;;6.50;47.40;;;;;;5187991;28;20446;-47
2023/04/03 13:00:33;;;;;;;1.40;0.73;;;6.60;47.60;;;;;;5169624;28;20478;-46
2023/04/03 13:03:06;;;;;;;1.50;0.70;;;6.40;48.00;;;;;;5188750;28;20437;-48
2023/04/03 13:05:36;;;;;;;0.80;0.80;;;6.40;48.20;;;;;;5182362;28;20442;-44
2023/04/03 13:08:12;;;;;;;0.80;0.70;;;6.00;47.70;;;;;;5187197;28;20473;-47
2023/04/03 13:10:57;;;;;;;6.37;0.87;;;5.80;49.00;;;;;;5173349;28;20192;-46
2023/04/03 13:13:28;;;;;;;3.60;0.77;;;5.60;49.70;;;;;;5182928;28;20449;-44
2023/04/03 13:15:59;;;;;;;0.87;0.73;;;5.40;50.30;;;;;;5189440;28;20444;-47
2023/04/03 13:18:34;;;;;;;2.83;1.30;;;5.30;51.10;;;;;;5183852;28;20471;-46
2023/04/03 13:21:20;;;;;;;0.93;0.93;;;5.30;51.60;;;;;;5173710;28;20176;-44
2023/04/03 13:23:55;;;;;;;0.90;0.67;;;5.50;51.10;;;;;;5167301;28;20433;-46
2023/04/03 13:26:30;;;;;;;1.53;1.10;;;5.50;51.10;;;;;;5175437;28;20473;-45
2023/04/03 13:29:06;;;;;;;0.83;0.83;;;5.60;51.00;;;;;;5162273;28;20484;-46
2023/04/03 13:31:39;;;;;;;2.10;1.00;;;5.80;50.70;;;;;;5161416;28;20456;-48
2023/04/03 13:34:10;;;;;;;1.60;0.73;;;5.80;50.80;;;;;;5178080;28;20994;-48
2023/04/03 13:36:54;;;;;;;3.70;1.00;;;5.90;49.80;;;;;;5182243;28;20479;-47
2023/04/03 13:39:28;;;;;;;4.60;1.13;;;6.00;50.00;;;;;;5163124;28;20493;-49